Modello, Florida
Current Conditions -  °F | °C
As of 2:58 PM on Monday 24 Nov 2014 (Local Time) from KHST Reporting Station
Few Clouds Few Clouds  
Wind Chill: 85°   Ceiling: Unl
Heat Index: 94°   Visibility: 10mi
Dew Point: 75°   Wind: 12mph
Humidity: 71%   Direction: 170°S
Pressure: 29.96"   Gusts: NA
Location:  25.4848°N, 80.5094°W
Report Text: KHST 241958Z AUTO 17010KT 10SM FEW022 30/24 A2996 RMK AO2 DZB1905E1913 SLP149 P0000 T02970239
Loading
Personal Weather Stations






























Interactive Weather Map New forecast layout! Learn more

10-Day Weather Forecast

Advertisements
Track Severe Weather on mobile